Time;durP1;ratioP1;P1;durP2;ratioP2;P2;SDS_P1;SDS_P2;PMS_P1;PMS_P2;Temp;Humidity;BMP_temperature;BMP_pressure;BME280_temperature;BME280_humidity;BME280_pressure;Samples;Min_cycle;Max_cycle;Signal;HPM_P1;HPM_P2
2021/08/06 00:00:07;;;;;;;21.08;12.10;;;14.50;80.90;;;;;;5058704;28;20103;-66
2021/08/06 00:02:36;;;;;;;19.02;11.80;;;14.50;80.90;;;;;;5059660;28;20375;-65
2021/08/06 00:05:03;;;;;;;18.77;11.75;;;14.50;80.60;;;;;;5065438;28;20069;-67
2021/08/06 00:07:29;;;;;;;15.52;11.52;;;14.40;80.80;;;;;;5060707;28;20048;-68
2021/08/06 00:09:56;;;;;;;17.52;11.32;;;14.40;80.60;;;;;;5059211;28;20021;-72
2021/08/06 00:12:22;;;;;;;14.85;10.68;;;14.40;80.50;;;;;;5064466;28;20025;-67
2021/08/06 00:14:49;;;;;;;16.42;10.30;;;14.40;80.60;;;;;;5059919;28;20070;-70
2021/08/06 00:17:15;;;;;;;17.65;12.05;;;14.30;80.70;;;;;;5060966;28;20029;-67
2021/08/06 00:19:42;;;;;;;18.85;12.20;;;14.40;80.90;;;;;;5040869;28;20056;-67
2021/08/06 00:22:08;;;;;;;16.48;11.25;;;14.40;80.70;;;;;;5063162;28;20480;-70
2021/08/06 00:24:35;;;;;;;16.10;11.07;;;14.40;80.60;;;;;;5061170;28;20070;-66
2021/08/06 00:27:01;;;;;;;12.43;9.82;;;14.40;80.30;;;;;;5060209;28;20029;-65
2021/08/06 00:29:28;;;;;;;13.27;9.30;;;14.30;80.20;;;;;;5063628;28;20072;-65
2021/08/06 00:31:54;;;;;;;21.58;10.27;;;14.30;80.10;;;;;;5059307;28;20005;-65
2021/08/06 00:34:21;;;;;;;12.13;9.30;;;14.30;80.00;;;;;;5059144;28;20021;-65
2021/08/06 00:36:47;;;;;;;13.80;9.00;;;14.30;79.90;;;;;;5061870;28;20036;-66
2021/08/06 00:39:14;;;;;;;14.15;10.48;;;14.20;79.70;;;;;;5060774;28;20025;-66
2021/08/06 00:41:41;;;;;;;13.73;9.57;;;14.20;79.80;;;;;;5056758;28;20071;-66
2021/08/06 00:44:07;;;;;;;14.07;9.65;;;14.20;79.50;;;;;;5060363;28;20774;-68
2021/08/06 00:46:34;;;;;;;11.57;8.80;;;14.10;79.50;;;;;;5059942;28;20024;-66
2021/08/06 00:49:02;;;;;;;9.90;7.28;;;14.10;79.60;;;;;;5060127;28;20091;-66
2021/08/06 00:51:28;;;;;;;10.00;7.97;;;14.10;79.50;;;;;;5060882;28;20040;-67
2021/08/06 00:53:55;;;;;;;10.60;7.22;;;14.00;79.40;;;;;;5061129;28;20028;-68
2021/08/06 00:56:21;;;;;;;11.68;6.85;;;14.00;79.50;;;;;;5062701;28;20537;-67
2021/08/06 00:58:48;;;;;;;10.52;7.32;;;14.00;79.50;;;;;;5042690;28;20021;-66
2021/08/06 01:01:14;;;;;;;11.50;7.63;;;14.00;79.60;;;;;;5062105;28;20079;-66
2021/08/06 01:04:10;;;;;;;11.38;6.68;;;14.00;79.40;;;;;;5045311;28;20538;-66
2021/08/06 01:06:51;;;;;;;9.38;6.28;;;13.90;79.20;;;;;;5057545;28;20021;-67
2021/08/06 01:09:27;;;;;;;11.55;7.15;;;13.90;79.30;;;;;;5062801;28;20060;-65
2021/08/06 01:11:56;;;;;;;8.63;6.65;;;13.80;79.40;;;;;;5061980;28;20052;-67
2021/08/06 01:14:27;;;;;;;8.95;5.78;;;13.80;79.50;;;;;;5058542;28;20036;-67
2021/08/06 01:16:57;;;;;;;8.90;6.45;;;13.80;79.30;;;;;;5061332;28;20048;-66
2021/08/06 01:19:41;;;;;;;10.30;7.22;;;13.80;79.30;;;;;;5058983;28;20561;-66
2021/08/06 01:22:36;;;;;;;10.15;7.43;;;13.70;79.20;;;;;;5058504;28;20491;-66
2021/08/06 01:25:28;;;;;;;8.98;6.05;;;13.70;79.20;;;;;;5058542;28;20039;-66
2021/08/06 01:27:55;;;;;;;8.88;6.32;;;13.70;79.40;;;;;;5055189;28;20044;-66
2021/08/06 01:30:22;;;;;;;6.57;5.38;;;13.60;79.30;;;;;;5066924;28;20033;-67
2021/08/06 01:32:48;;;;;;;9.27;7.13;;;13.60;79.40;;;;;;5059670;28;20021;-67
2021/08/06 01:35:15;;;;;;;8.43;6.32;;;13.50;79.30;;;;;;5060735;28;20108;-66
2021/08/06 01:37:41;;;;;;;8.63;6.53;;;13.50;79.50;;;;;;5058759;28;20050;-66
2021/08/06 01:40:09;;;;;;;7.38;6.07;;;13.50;79.50;;;;;;5061844;28;20016;-66
2021/08/06 01:42:58;;;;;;;8.15;6.95;;;13.50;79.60;;;;;;5059565;28;20009;-66
2021/08/06 01:45:32;;;;;;;11.73;5.72;;;13.50;79.50;;;;;;5061632;28;20112;-66
2021/08/06 01:47:59;;;;;;;7.53;6.32;;;13.50;79.50;;;;;;5062323;28;20060;-66
2021/08/06 01:50:36;;;;;;;8.30;7.28;;;13.50;79.60;;;;;;5064271;28;20025;-66
2021/08/06 01:53:07;;;;;;;10.38;6.32;;;13.40;79.50;;;;;;5065211;28;20029;-66
2021/08/06 01:56:11;;;;;;;7.75;6.95;;;13.40;79.60;;;;;;5042177;28;20387;-66
2021/08/06 01:58:39;;;;;;;7.35;6.43;;;13.40;79.60;;;;;;5023148;28;20040;-66
2021/08/06 02:01:12;;;;;;;7.95;6.30;;;13.40;79.70;;;;;;5065110;28;20575;-66
2021/08/06 02:03:41;;;;;;;7.68;5.38;;;13.40;79.50;;;;;;5066118;28;20103;-66
2021/08/06 02:06:09;;;;;;;11.32;6.43;;;13.40;79.30;;;;;;5066086;28;20074;-67
2021/08/06 02:08:38;;;;;;;13.18;9.80;;;13.40;79.30;;;;;;5062679;28;20013;-67
2021/08/06 02:11:05;;;;;;;20.42;14.38;;;13.30;79.50;;;;;;5061416;28;20048;-67
2021/08/06 02:13:35;;;;;;;10.27;7.50;;;13.30;79.50;;;;;;5062923;28;20514;-67
2021/08/06 02:16:02;;;;;;;9.20;7.13;;;13.30;79.50;;;;;;5058082;28;20028;-66
2021/08/06 02:18:35;;;;;;;12.05;7.63;;;13.30;79.50;;;;;;5061625;28;20009;-67
2021/08/06 02:21:11;;;;;;;9.20;6.68;;;13.30;79.40;;;;;;5061235;28;20390;-66
2021/08/06 02:23:43;;;;;;;7.88;6.65;;;13.30;79.30;;;;;;5059245;28;20021;-66
2021/08/06 02:26:12;;;;;;;10.93;6.10;;;13.30;79.10;;;;;;5059224;28;20021;-66
2021/08/06 02:28:40;;;;;;;9.95;6.18;;;13.20;78.90;;;;;;5060112;28;20029;-67
2021/08/06 02:31:07;;;;;;;7.95;5.70;;;13.20;79.00;;;;;;5063453;28;20036;-66
2021/08/06 02:33:34;;;;;;;7.35;6.60;;;13.20;79.10;;;;;;5063991;28;20427;-66
2021/08/06 02:36:01;;;;;;;11.30;6.70;;;13.20;78.90;;;;;;5064487;28;20031;-66
2021/08/06 02:38:28;;;;;;;9.15;7.20;;;13.20;79.10;;;;;;5046679;28;20071;-66
2021/08/06 02:40:54;;;;;;;7.55;6.45;;;13.10;79.20;;;;;;5064020;28;20032;-65
2021/08/06 02:43:21;;;;;;;10.70;6.40;;;13.20;79.40;;;;;;5062813;28;20028;-66
2021/08/06 02:45:49;;;;;;;9.65;6.85;;;13.10;79.50;;;;;;5063590;28;20050;-66
2021/08/06 02:48:16;;;;;;;7.15;5.78;;;13.10;79.50;;;;;;5061108;28;20023;-65
2021/08/06 02:50:42;;;;;;;10.75;6.53;;;13.20;79.30;;;;;;5060804;28;20045;-66
2021/08/06 02:53:10;;;;;;;9.68;5.78;;;13.10;79.20;;;;;;5061575;28;20040;-66
2021/08/06 02:55:37;;;;;;;8.82;6.13;;;13.10;79.40;;;;;;5059889;28;20017;-66
2021/08/06 02:58:03;;;;;;;6.80;5.90;;;13.10;79.50;;;;;;5060845;28;20059;-66
2021/08/06 03:00:30;;;;;;;10.10;5.90;;;13.10;80.10;;;;;;5066104;28;20016;-66
2021/08/06 03:02:57;;;;;;;8.38;6.07;;;13.10;79.70;;;;;;5063281;28;20013;-66
2021/08/06 03:05:23;;;;;;;7.50;6.18;;;13.00;79.70;;;;;;5058997;28;20056;-66
2021/08/06 03:07:52;;;;;;;8.55;6.13;;;13.10;79.80;;;;;;5060296;28;20024;-67
2021/08/06 03:10:20;;;;;;;10.07;6.68;;;13.00;79.90;;;;;;5062505;28;20025;-67
2021/08/06 03:12:50;;;;;;;11.80;6.18;;;13.00;80.00;;;;;;5064985;28;20027;-67
2021/08/06 03:15:19;;;;;;;13.20;6.70;;;13.00;80.00;;;;;;5062110;28;20024;-67
2021/08/06 03:17:46;;;;;;;10.10;7.00;;;13.00;80.00;;;;;;5046908;28;20028;-66
2021/08/06 03:20:19;;;;;;;13.88;7.65;;;13.00;79.80;;;;;;5060020;28;20811;-66
2021/08/06 03:22:45;;;;;;;13.07;6.93;;;13.00;79.90;;;;;;5063316;28;20065;-66
2021/08/06 03:25:12;;;;;;;9.73;6.47;;;13.00;80.10;;;;;;5062520;28;20036;-67
2021/08/06 03:27:39;;;;;;;10.50;6.95;;;12.90;80.00;;;;;;5063602;28;20483;-67
2021/08/06 03:30:08;;;;;;;9.98;6.60;;;12.90;80.10;;;;;;5060783;28;20107;-67
2021/08/06 03:32:35;;;;;;;10.85;6.35;;;12.90;80.00;;;;;;5061039;28;20035;-68
2021/08/06 03:35:02;;;;;;;10.27;6.38;;;12.90;80.00;;;;;;5063344;28;20385;-67
2021/08/06 03:37:28;;;;;;;6.97;5.68;;;12.90;80.10;;;;;;5062455;28;20121;-67
2021/08/06 03:39:55;;;;;;;7.93;6.60;;;12.90;80.30;;;;;;5062061;28;20392;-66
2021/08/06 03:42:22;;;;;;;8.40;6.03;;;12.90;80.30;;;;;;5059919;28;20017;-66
2021/08/06 03:44:49;;;;;;;8.10;6.50;;;12.90;80.30;;;;;;5061843;28;20066;-66
2021/08/06 03:47:16;;;;;;;11.80;6.43;;;12.90;80.40;;;;;;5059816;28;20025;-67
2021/08/06 03:49:43;;;;;;;10.98;7.03;;;12.90;80.20;;;;;;5063224;28;20415;-66
2021/08/06 03:52:09;;;;;;;13.73;6.30;;;12.90;80.20;;;;;;5060944;28;20067;-66
2021/08/06 03:54:36;;;;;;;12.80;6.55;;;12.90;80.50;;;;;;5060653;28;20047;-65
2021/08/06 03:57:03;;;;;;;11.05;7.80;;;12.90;81.30;;;;;;5064482;28;20491;-65
2021/08/06 03:59:30;;;;;;;11.25;6.30;;;12.90;80.60;;;;;;5064556;28;20533;-64
2021/08/06 04:01:56;;;;;;;12.88;5.82;;;12.90;80.30;;;;;;5061422;28;20399;-65
2021/08/06 04:04:23;;;;;;;12.25;6.90;;;12.80;80.30;;;;;;5059783;28;20036;-63
2021/08/06 04:06:49;;;;;;;9.05;6.13;;;12.80;80.40;;;;;;5063510;28;20039;-67
2021/08/06 04:09:17;;;;;;;26.83;18.20;;;12.90;80.60;;;;;;5060365;28;20033;-65
2021/08/06 04:11:43;;;;;;;26.27;19.92;;;12.80;80.60;;;;;;5064854;28;20039;-66
2021/08/06 04:14:10;;;;;;;11.32;7.50;;;12.80;80.60;;;;;;5064916;28;20028;-64
2021/08/06 04:16:37;;;;;;;7.22;4.97;;;12.80;80.40;;;;;;5059644;28;20151;-68
2021/08/06 04:19:03;;;;;;;8.88;5.07;;;12.80;80.40;;;;;;5062976;28;20027;-67
2021/08/06 04:21:30;;;;;;;8.77;5.03;;;12.80;80.40;;;;;;5061684;28;20025;-73
2021/08/06 04:23:56;;;;;;;10.05;5.18;;;12.70;80.40;;;;;;5063755;28;20070;-68
2021/08/06 04:26:23;;;;;;;8.30;5.30;;;12.70;81.30;;;;;;5055966;28;20033;-71
2021/08/06 04:28:49;;;;;;;20.45;6.55;;;12.70;81.90;;;;;;5063298;28;20038;-69
2021/08/06 04:31:16;;;;;;;20.08;14.52;;;12.70;82.20;;;;;;5061650;28;20032;-70
2021/08/06 04:33:42;;;;;;;48.88;33.78;;;12.70;80.60;;;;;;5057168;28;20116;-69
2021/08/06 04:36:09;;;;;;;18.70;11.20;;;12.70;80.50;;;;;;5062299;28;20024;-66
2021/08/06 04:38:35;;;;;;;11.15;7.40;;;12.60;80.90;;;;;;5060758;28;20017;-69
2021/08/06 04:41:02;;;;;;;10.55;5.82;;;12.60;80.20;;;;;;5066461;28;20108;-66
2021/08/06 04:43:29;;;;;;;7.68;5.78;;;12.60;80.40;;;;;;5060044;28;20530;-70
2021/08/06 04:45:55;;;;;;;9.13;5.45;;;12.60;80.40;;;;;;5062191;28;20025;-70
2021/08/06 04:48:23;;;;;;;11.68;5.88;;;12.60;80.40;;;;;;5058808;28;20021;-68
2021/08/06 04:50:50;;;;;;;8.07;6.00;;;12.50;80.30;;;;;;5062727;28;20048;-68
2021/08/06 04:53:16;;;;;;;7.60;5.97;;;12.50;80.60;;;;;;5059687;28;20032;-69
2021/08/06 04:55:43;;;;;;;11.23;8.05;;;12.50;80.40;;;;;;5062095;28;20032;-70
2021/08/06 04:58:10;;;;;;;9.43;8.07;;;12.50;80.60;;;;;;5060013;28;20058;-70
2021/08/06 05:00:36;;;;;;;7.75;6.95;;;12.50;80.80;;;;;;5062799;28;20039;-69
2021/08/06 05:03:03;;;;;;;11.10;8.65;;;12.50;80.90;;;;;;5059138;28;20385;-68
2021/08/06 05:06:09;;;;;;;9.82;8.52;;;12.40;81.00;;;;;;5060481;28;20025;-69
2021/08/06 05:08:38;;;;;;;10.10;7.78;;;12.40;81.00;;;;;;5058516;28;20032;-69
2021/08/06 05:11:05;;;;;;;12.05;7.63;;;12.40;80.80;;;;;;5057510;28;20033;-69
2021/08/06 05:13:31;;;;;;;12.02;7.53;;;12.40;80.60;;;;;;5059100;28;20028;-69
2021/08/06 05:15:58;;;;;;;8.45;6.97;;;12.40;80.60;;;;;;5063088;28;20074;-69
2021/08/06 05:18:24;;;;;;;7.57;6.65;;;12.30;80.40;;;;;;5055888;28;20025;-69
2021/08/06 05:20:51;;;;;;;11.40;7.82;;;12.30;80.40;;;;;;5060387;28;20020;-69
2021/08/06 05:23:20;;;;;;;8.52;6.72;;;12.30;80.20;;;;;;5062994;28;20067;-69
2021/08/06 05:25:47;;;;;;;12.52;7.75;;;12.30;80.10;;;;;;5061998;28;20076;-69
2021/08/06 05:28:13;;;;;;;13.30;6.95;;;12.30;80.30;;;;;;5062187;28;20017;-69
2021/08/06 05:30:40;;;;;;;9.10;6.45;;;12.30;80.30;;;;;;5063038;28;20044;-69
2021/08/06 05:33:07;;;;;;;7.70;6.13;;;12.30;80.20;;;;;;5062051;28;20388;-69
2021/08/06 05:35:33;;;;;;;7.47;6.28;;;12.30;80.60;;;;;;5062748;28;20029;-69
2021/08/06 05:38:00;;;;;;;9.73;6.97;;;12.30;80.60;;;;;;5063097;28;20054;-69
2021/08/06 05:40:27;;;;;;;7.28;6.22;;;12.20;80.70;;;;;;5062868;28;20472;-68
2021/08/06 05:42:56;;;;;;;8.27;5.60;;;12.20;80.50;;;;;;5059522;28;20151;-69
2021/08/06 05:45:23;;;;;;;7.72;6.20;;;12.20;80.50;;;;;;5060696;28;20029;-68
2021/08/06 05:48:29;;;;;;;7.95;5.35;;;12.20;81.00;;;;;;5054422;28;20458;-68
2021/08/06 05:51:35;;;;;;;5.75;4.45;;;12.30;81.20;;;;;;5061247;28;20060;-69
2021/08/06 05:54:41;;;;;;;6.00;4.25;;;12.20;81.10;;;;;;5059995;28;20077;-68
2021/08/06 05:57:47;;;;;;;11.27;6.45;;;12.30;81.40;;;;;;5063261;28;20511;-69
2021/08/06 06:00:53;;;;;;;11.32;6.18;;;12.30;81.50;;;;;;5061588;28;20072;-69
2021/08/06 06:04:00;;;;;;;6.95;4.88;;;12.30;81.60;;;;;;5059546;28;20384;-69
2021/08/06 06:07:06;;;;;;;11.65;5.65;;;12.30;81.90;;;;;;5058708;28;20061;-69
2021/08/06 06:10:12;;;;;;;10.90;5.70;;;12.30;81.90;;;;;;5060443;28;20021;-68
2021/08/06 06:13:18;;;;;;;11.65;7.15;;;12.20;81.90;;;;;;5063393;28;20024;-68
2021/08/06 06:16:24;;;;;;;21.48;8.40;;;12.20;82.20;;;;;;5061855;28;20121;-69
2021/08/06 06:19:30;;;;;;;14.70;7.22;;;12.20;82.70;;;;;;5059265;28;20016;-68
2021/08/06 06:22:36;;;;;;;16.90;8.65;;;12.20;82.80;;;;;;5062663;28;20102;-68
2021/08/06 06:25:42;;;;;;;11.85;8.70;;;12.20;82.90;;;;;;5062371;28;20017;-69
2021/08/06 06:28:48;;;;;;;15.13;10.10;;;12.30;83.20;;;;;;5060415;28;20029;-69
2021/08/06 06:31:15;;;;;;;20.20;10.55;;;12.30;83.40;;;;;;5063885;28;20085;-69
2021/08/06 06:33:41;;;;;;;21.63;11.95;;;12.30;83.70;;;;;;5062633;28;20032;-71
2021/08/06 06:36:07;;;;;;;23.92;11.15;;;12.30;83.80;;;;;;5042907;28;20028;-72
2021/08/06 06:38:34;;;;;;;23.15;10.82;;;12.30;83.80;;;;;;5061282;28;20016;-70
2021/08/06 06:41:00;;;;;;;24.77;11.48;;;12.40;84.10;;;;;;5065871;28;20040;-70
2021/08/06 06:43:27;;;;;;;17.52;10.05;;;12.40;84.30;;;;;;5061535;28;20032;-69
2021/08/06 06:45:53;;;;;;;18.20;9.60;;;12.40;84.40;;;;;;5064092;28;20127;-70
2021/08/06 06:48:24;;;;;;;16.80;10.30;;;12.50;84.40;;;;;;5060165;28;20016;-70
2021/08/06 06:50:51;;;;;;;18.10;10.68;;;12.50;84.80;;;;;;5062705;28;20692;-69
2021/08/06 06:53:18;;;;;;;13.85;10.07;;;12.60;85.30;;;;;;5060257;28;20037;-69
2021/08/06 06:55:44;;;;;;;15.32;9.73;;;12.60;85.50;;;;;;5069405;28;20021;-70
2021/08/06 06:58:11;;;;;;;21.52;10.65;;;12.70;85.90;;;;;;5064832;28;20410;-69
2021/08/06 07:00:37;;;;;;;18.10;10.02;;;12.80;86.00;;;;;;5062949;28;20059;-69
2021/08/06 07:03:04;;;;;;;19.70;11.60;;;12.80;86.10;;;;;;5063943;28;20017;-70
2021/08/06 07:05:31;;;;;;;17.75;10.80;;;12.90;86.20;;;;;;5064321;28;20021;-70
2021/08/06 07:07:57;;;;;;;21.80;11.05;;;12.90;86.40;;;;;;5062277;28;20013;-70
2021/08/06 07:10:24;;;;;;;18.17;10.63;;;12.90;86.40;;;;;;5062865;28;20395;-67
2021/08/06 07:12:51;;;;;;;23.58;10.63;;;13.00;86.30;;;;;;5042327;28;20027;-69
2021/08/06 07:15:18;;;;;;;18.20;10.25;;;13.10;86.40;;;;;;5062348;28;20047;-70
2021/08/06 07:17:45;;;;;;;16.60;10.43;;;13.10;86.60;;;;;;5059662;28;20025;-69
2021/08/06 07:20:13;;;;;;;21.90;11.07;;;13.20;86.50;;;;;;5061583;28;20028;-68
2021/08/06 07:22:40;;;;;;;18.50;10.38;;;13.20;86.60;;;;;;5063348;28;20028;-69
2021/08/06 07:25:09;;;;;;;20.60;10.80;;;13.30;86.80;;;;;;5062494;28;20598;-69
2021/08/06 07:27:37;;;;;;;34.22;13.57;;;13.30;86.90;;;;;;5062872;28;20017;-68
2021/08/06 07:30:05;;;;;;;27.67;15.77;;;13.40;86.60;;;;;;5063617;28;20047;-69
2021/08/06 07:32:31;;;;;;;39.85;16.48;;;13.40;86.40;;;;;;5065107;28;20031;-69
2021/08/06 07:34:58;;;;;;;44.67;17.45;;;13.50;86.40;;;;;;5064368;28;20035;-70
2021/08/06 07:37:25;;;;;;;47.90;19.95;;;13.50;86.60;;;;;;5059589;28;20029;-68
2021/08/06 07:39:53;;;;;;;39.88;17.85;;;13.60;86.70;;;;;;5042351;28;20028;-69
2021/08/06 07:42:19;;;;;;;40.97;20.58;;;13.70;86.70;;;;;;5062933;28;20078;-68
2021/08/06 07:44:47;;;;;;;34.05;18.80;;;13.70;86.60;;;;;;5062605;28;20053;-69
2021/08/06 07:47:13;;;;;;;40.38;20.85;;;13.80;86.50;;;;;;5062656;28;20016;-69
2021/08/06 07:49:41;;;;;;;44.72;20.05;;;13.80;86.50;;;;;;5060950;28;20037;-69
2021/08/06 07:52:12;;;;;;;40.30;19.60;;;13.90;86.50;;;;;;5042552;28;20365;-70
2021/08/06 07:54:39;;;;;;;28.60;18.15;;;14.00;87.10;;;;;;5061512;28;20033;-69
2021/08/06 07:57:06;;;;;;;41.50;17.23;;;14.00;87.30;;;;;;5065345;28;20024;-69
2021/08/06 07:59:33;;;;;;;31.25;17.15;;;14.10;87.30;;;;;;5060757;28;20016;-69
2021/08/06 08:01:59;;;;;;;29.65;14.90;;;14.20;87.40;;;;;;5059395;28;20024;-69
2021/08/06 08:04:26;;;;;;;37.60;17.25;;;14.20;87.50;;;;;;5060908;28;20025;-69
2021/08/06 08:06:53;;;;;;;37.53;16.23;;;14.30;87.80;;;;;;5043406;28;20023;-69
2021/08/06 08:09:19;;;;;;;34.65;17.10;;;14.40;88.00;;;;;;5063162;28;20032;-69
2021/08/06 08:11:46;;;;;;;38.53;18.27;;;14.40;88.10;;;;;;5063393;28;20025;-69
2021/08/06 08:14:13;;;;;;;36.58;19.77;;;14.50;88.40;;;;;;5064147;28;20056;-69
2021/08/06 08:16:40;;;;;;;36.55;18.40;;;14.50;88.40;;;;;;5060514;28;20021;-68
2021/08/06 08:19:06;;;;;;;45.65;20.30;;;14.60;88.40;;;;;;5061239;28;20471;-68
2021/08/06 08:21:33;;;;;;;35.05;20.00;;;14.70;88.40;;;;;;5062774;28;20025;-68
2021/08/06 08:23:59;;;;;;;40.80;22.65;;;14.70;88.20;;;;;;5062383;28;20123;-68
2021/08/06 08:26:26;;;;;;;43.97;22.48;;;14.80;88.30;;;;;;5060403;28;20032;-69
2021/08/06 08:28:52;;;;;;;31.50;19.23;;;14.90;88.20;;;;;;5060823;28;20017;-68
2021/08/06 08:31:19;;;;;;;47.78;22.63;;;14.90;88.10;;;;;;5063462;28;20024;-69
2021/08/06 08:34:25;;;;;;;44.65;23.02;;;14.90;87.90;;;;;;5066026;28;20377;-67
2021/08/06 08:37:31;;;;;;;52.33;24.73;;;15.00;87.90;;;;;;5060874;28;20028;-69
2021/08/06 08:40:37;;;;;;;49.75;22.63;;;15.10;87.80;;;;;;5067475;28;20021;-71
2021/08/06 08:43:05;;;;;;;42.80;24.60;;;15.20;87.90;;;;;;5064560;28;20020;-68
2021/08/06 08:45:32;;;;;;;42.58;25.25;;;15.30;88.20;;;;;;5059364;28;20028;-70
2021/08/06 08:47:59;;;;;;;36.42;22.20;;;15.30;87.70;;;;;;5040379;28;20017;-70
2021/08/06 08:50:27;;;;;;;38.13;20.23;;;15.40;87.20;;;;;;5062242;28;20036;-69
2021/08/06 08:52:54;;;;;;;36.63;21.88;;;15.50;87.00;;;;;;5046265;28;20079;-68
2021/08/06 08:55:21;;;;;;;36.55;23.88;;;15.60;86.50;;;;;;5061248;28;20033;-70
2021/08/06 08:57:48;;;;;;;42.05;23.13;;;15.60;86.20;;;;;;5066168;28;20393;-69
2021/08/06 09:00:16;;;;;;;31.90;19.83;;;15.70;86.30;;;;;;5062951;28;20024;-69
2021/08/06 09:02:43;;;;;;;34.75;20.98;;;15.90;86.80;;;;;;5066081;28;20056;-69
2021/08/06 09:05:20;;;;;;;30.65;22.55;;;15.90;86.10;;;;;;5066370;28;20028;-70
2021/08/06 09:07:49;;;;;;;31.67;17.83;;;16.10;85.90;;;;;;5066034;28;20019;-69
2021/08/06 09:10:20;;;;;;;32.05;18.90;;;16.20;85.70;;;;;;5061560;28;20035;-69
2021/08/06 09:12:54;;;;;;;31.73;18.15;;;16.20;84.60;;;;;;5064837;28;20025;-69
2021/08/06 09:15:43;;;;;;;25.13;16.45;;;16.40;84.60;;;;;;5062804;28;20488;-69
2021/08/06 09:18:28;;;;;;;24.88;15.82;;;16.50;84.20;;;;;;5061830;28;20032;-69
2021/08/06 09:20:55;;;;;;;25.08;16.20;;;16.60;83.80;;;;;;5065186;28;20020;-69
2021/08/06 09:23:45;;;;;;;25.70;14.82;;;16.70;83.40;;;;;;5049768;28;20309;-70
2021/08/06 09:26:27;;;;;;;28.67;16.85;;;16.80;81.90;;;;;;5064820;28;20017;-69
2021/08/06 09:29:09;;;;;;;25.95;15.85;;;16.90;81.80;;;;;;5062318;28;20020;-70
2021/08/06 09:32:00;;;;;;;25.00;16.63;;;17.00;81.40;;;;;;5038762;28;20052;-70
2021/08/06 09:34:32;;;;;;;23.52;14.30;;;17.10;80.90;;;;;;5047345;28;20039;-71
2021/08/06 09:37:10;;;;;;;24.77;15.60;;;17.20;80.00;;;;;;5064433;28;20494;-71
2021/08/06 09:39:48;;;;;;;24.15;13.52;;;17.30;79.20;;;;;;5063056;28;20114;-70
2021/08/06 09:42:22;;;;;;;23.17;14.38;;;17.40;77.70;;;;;;5048203;28;20106;-71
2021/08/06 09:45:14;;;;;;;26.75;15.68;;;17.50;78.20;;;;;;5063152;28;20025;-70
2021/08/06 09:47:43;;;;;;;24.65;17.23;;;17.60;78.40;;;;;;5062759;28;20028;-71
2021/08/06 09:50:17;;;;;;;18.98;14.48;;;17.70;77.40;;;;;;5064479;28;20032;-70
2021/08/06 09:52:49;;;;;;;25.33;15.73;;;17.80;76.70;;;;;;5063461;28;20051;-71
2021/08/06 09:55:35;;;;;;;25.25;13.27;;;17.90;76.50;;;;;;5075162;28;20427;-69
2021/08/06 09:58:07;;;;;;;23.60;13.27;;;18.00;75.50;;;;;;5075104;28;20017;-69
2021/08/06 10:00:38;;;;;;;18.02;13.45;;;18.10;74.80;;;;;;5079158;28;20016;-69
2021/08/06 10:03:05;;;;;;;18.42;12.32;;;18.20;73.80;;;;;;5075757;28;20016;-70
2021/08/06 10:05:32;;;;;;;21.83;11.70;;;18.30;72.10;;;;;;5067311;28;20009;-69
2021/08/06 10:08:01;;;;;;;15.20;10.60;;;18.40;72.00;;;;;;5074567;28;20448;-69
2021/08/06 10:10:30;;;;;;;16.02;11.13;;;18.50;73.00;;;;;;5071989;28;20577;-69
2021/08/06 10:12:59;;;;;;;15.73;10.15;;;18.60;71.10;;;;;;5071507;28;20078;-69
2021/08/06 10:15:27;;;;;;;11.70;10.50;;;18.60;70.40;;;;;;5071705;28;20112;-69
2021/08/06 10:17:55;;;;;;;13.52;10.30;;;18.80;71.20;;;;;;5075291;28;20032;-69
2021/08/06 10:20:23;;;;;;;15.90;10.88;;;18.80;70.50;;;;;;5077202;28;20028;-70
2021/08/06 10:22:51;;;;;;;16.00;11.05;;;19.00;70.80;;;;;;5072027;28;20020;-70
2021/08/06 10:25:22;;;;;;;23.98;12.45;;;19.10;71.20;;;;;;5074107;28;20089;-70
2021/08/06 10:27:50;;;;;;;23.50;12.13;;;19.20;70.90;;;;;;5077776;28;20415;-70
2021/08/06 10:30:29;;;;;;;15.10;10.73;;;19.30;70.30;;;;;;5070464;28;20009;-69
2021/08/06 10:33:18;;;;;;;17.35;10.85;;;19.30;70.20;;;;;;5074804;28;20475;-70
2021/08/06 10:35:48;;;;;;;23.42;11.25;;;19.40;69.90;;;;;;5067216;28;20477;-69
2021/08/06 10:38:33;;;;;;;23.42;11.65;;;19.50;69.00;;;;;;5071649;28;20016;-70
2021/08/06 10:40:59;;;;;;;14.43;11.27;;;19.60;68.70;;;;;;5071960;28;20375;-70
2021/08/06 10:43:40;;;;;;;19.88;10.20;;;19.60;68.60;;;;;;5072117;28;20522;-70
2021/08/06 10:46:08;;;;;;;17.90;12.10;;;19.70;68.50;;;;;;5068138;28;20013;-70
2021/08/06 10:48:43;;;;;;;19.92;11.73;;;19.70;68.10;;;;;;5069815;28;20039;-70
2021/08/06 10:51:15;;;;;;;12.60;9.77;;;19.80;68.30;;;;;;5076247;28;20501;-70
2021/08/06 10:54:09;;;;;;;19.10;10.07;;;19.90;68.60;;;;;;5076596;28;20052;-70
2021/08/06 10:56:40;;;;;;;16.10;9.80;;;19.90;67.80;;;;;;5060687;28;21211;-70
2021/08/06 10:59:14;;;;;;;15.30;9.20;;;20.00;67.80;;;;;;5073000;28;20012;-70
2021/08/06 11:01:48;;;;;;;14.40;9.10;;;20.10;67.10;;;;;;5069065;28;20024;-70
2021/08/06 11:04:15;;;;;;;15.95;9.57;;;20.20;67.20;;;;;;5071777;28;20051;-70
2021/08/06 11:06:47;;;;;;;14.65;9.23;;;20.30;66.70;;;;;;5053366;28;20024;-70
2021/08/06 11:09:25;;;;;;;7.90;6.75;;;20.40;66.90;;;;;;5061969;28;20118;-70
2021/08/06 11:12:11;;;;;;;18.77;6.75;;;20.40;66.80;;;;;;5056434;28;20479;-70
2021/08/06 11:14:40;;;;;;;;;;;20.50;66.20;;;;;;5057847;28;20083;-70
2021/08/06 11:17:17;;;;;;;9.48;6.15;;;20.50;66.60;;;;;;5057503;28;20377;-70
2021/08/06 11:20:05;;;;;;;9.23;6.50;;;20.60;66.70;;;;;;5054366;28;20063;-71
2021/08/06 11:22:38;;;;;;;16.52;7.40;;;20.60;66.10;;;;;;5057070;28;21058;-70
2021/08/06 11:25:22;;;;;;;13.73;7.38;;;20.60;66.10;;;;;;5054302;28;20020;-71
2021/08/06 11:27:56;;;;;;;10.57;8.20;;;20.70;65.40;;;;;;5059772;28;20026;-71
2021/08/06 11:30:25;;;;;;;13.98;7.70;;;20.70;65.30;;;;;;5056806;28;20136;-72
2021/08/06 11:32:58;;;;;;;12.13;7.45;;;20.70;65.40;;;;;;5053109;28;20036;-71
2021/08/06 11:35:32;;;;;;;9.75;8.00;;;20.70;65.30;;;;;;5062053;28;20081;-71
2021/08/06 11:38:04;;;;;;;15.45;7.50;;;20.60;65.10;;;;;;5059619;28;20035;-72
2021/08/06 11:40:36;;;;;;;11.30;7.40;;;20.60;64.80;;;;;;5057579;28;20028;-71
2021/08/06 11:43:18;;;;;;;13.02;7.97;;;20.70;65.10;;;;;;5054759;28;20028;-71
2021/08/06 11:45:49;;;;;;;12.00;7.18;;;20.70;65.30;;;;;;5056568;28;20104;-72
2021/08/06 11:48:16;;;;;;;14.43;7.20;;;20.80;65.20;;;;;;5054739;28;20013;-71
2021/08/06 11:50:45;;;;;;;15.23;7.35;;;20.80;65.10;;;;;;5063556;28;20021;-72
2021/08/06 11:53:17;;;;;;;17.80;7.60;;;20.80;65.40;;;;;;5055810;28;20130;-71
2021/08/06 11:55:49;;;;;;;12.75;7.00;;;20.80;65.80;;;;;;5058713;28;20468;-70
2021/08/06 11:58:28;;;;;;;9.80;7.05;;;20.90;66.20;;;;;;5054033;28;20025;-71
2021/08/06 12:00:54;;;;;;;12.20;6.75;;;20.80;65.70;;;;;;5060738;28;20044;-70
2021/08/06 12:03:21;;;;;;;10.18;6.82;;;20.80;65.90;;;;;;5059079;28;20496;-70
2021/08/06 12:05:49;;;;;;;10.80;7.05;;;20.80;66.10;;;;;;5063163;28;20046;-71
2021/08/06 12:08:34;;;;;;;12.20;7.65;;;20.80;66.10;;;;;;5053436;28;20028;-70
2021/08/06 12:11:07;;;;;;;14.57;6.95;;;20.70;65.70;;;;;;5053509;28;20025;-70
2021/08/06 12:13:39;;;;;;;12.68;7.50;;;20.60;66.30;;;;;;5060546;28;20116;-70
2021/08/06 12:16:16;;;;;;;8.88;6.43;;;20.60;66.30;;;;;;5054516;28;20414;-70
2021/08/06 12:19:23;;;;;;;11.07;7.38;;;20.60;66.60;;;;;;5054479;28;20727;-71
2021/08/06 12:22:29;;;;;;;16.77;10.45;;;20.70;66.90;;;;;;5044894;28;20083;-70
2021/08/06 12:25:35;;;;;;;10.60;7.50;;;20.70;67.60;;;;;;5057135;28;20021;-70
2021/08/06 12:28:19;;;;;;;15.15;6.70;;;20.70;66.00;;;;;;5051564;28;20025;-70
2021/08/06 12:30:46;;;;;;;16.03;8.37;;;20.80;66.90;;;;;;5056603;28;20440;-70
2021/08/06 12:33:22;;;;;;;13.15;8.07;;;20.70;67.40;;;;;;5056371;28;20487;-70
2021/08/06 12:35:48;;;;;;;13.40;7.40;;;20.70;67.20;;;;;;5060913;28;20029;-70
2021/08/06 12:38:24;;;;;;;10.18;6.55;;;20.70;67.30;;;;;;5058467;28;20079;-71
2021/08/06 12:40:51;;;;;;;16.13;7.10;;;20.60;67.10;;;;;;5059817;28;20059;-70
2021/08/06 12:43:19;;;;;;;11.05;7.15;;;20.50;67.60;;;;;;5061220;28;20020;-70
2021/08/06 12:45:46;;;;;;;13.38;8.38;;;20.50;67.70;;;;;;5056897;28;20028;-70
2021/08/06 12:48:12;;;;;;;8.40;6.90;;;20.50;68.70;;;;;;5057840;28;20067;-70
2021/08/06 12:50:39;;;;;;;11.77;7.15;;;20.50;68.80;;;;;;5057155;28;20021;-71
2021/08/06 12:53:11;;;;;;;11.13;6.72;;;20.50;69.00;;;;;;5057367;28;20020;-71
2021/08/06 12:55:39;;;;;;;12.32;6.30;;;20.50;69.00;;;;;;5059012;28;20036;-71
2021/08/06 12:58:19;;;;;;;11.60;6.03;;;20.40;69.50;;;;;;5058093;28;20873;-70
2021/08/06 13:00:48;;;;;;;12.85;6.38;;;20.50;70.20;;;;;;5063854;28;20037;-71